sensor_id;sensor_type;location;lat;lon;timestamp;temperature;humidity
10057;DHT22;5068;51.286;7.518;2022-11-20T00:00:06;0.10;63.00
10057;DHT22;5068;51.286;7.518;2022-11-20T00:01:53;0.10;63.10
10057;DHT22;5068;51.286;7.518;2022-11-20T00:03:26;0.10;63.10
10057;DHT22;5068;51.286;7.518;2022-11-20T00:04:59;0.10;63.10
10057;DHT22;5068;51.286;7.518;2022-11-20T00:06:32;0.20;63.20
10057;DHT22;5068;51.286;7.518;2022-11-20T00:08:05;0.10;63.20
10057;DHT22;5068;51.286;7.518;2022-11-20T00:09:37;0.20;63.40
10057;DHT22;5068;51.286;7.518;2022-11-20T00:11:12;0.20;63.40
10057;DHT22;5068;51.286;7.518;2022-11-20T00:12:47;0.20;63.50
10057;DHT22;5068;51.286;7.518;2022-11-20T00:14:20;0.20;63.50
10057;DHT22;5068;51.286;7.518;2022-11-20T00:15:57;0.20;63.60
10057;DHT22;5068;51.286;7.518;2022-11-20T00:17:30;0.20;63.60
10057;DHT22;5068;51.286;7.518;2022-11-20T00:19:04;0.30;63.70
10057;DHT22;5068;51.286;7.518;2022-11-20T00:20:37;0.30;63.70
10057;DHT22;5068;51.286;7.518;2022-11-20T00:22:10;0.30;63.70
10057;DHT22;5068;51.286;7.518;2022-11-20T00:23:44;0.30;63.70
10057;DHT22;5068;51.286;7.518;2022-11-20T00:25:17;0.30;63.80
10057;DHT22;5068;51.286;7.518;2022-11-20T00:26:50;0.30;63.70
10057;DHT22;5068;51.286;7.518;2022-11-20T00:28:23;0.30;63.70
10057;DHT22;5068;51.286;7.518;2022-11-20T00:29:56;0.30;63.80
10057;DHT22;5068;51.286;7.518;2022-11-20T00:31:30;0.40;64.00
10057;DHT22;5068;51.286;7.518;2022-11-20T00:33:06;0.40;64.00
10057;DHT22;5068;51.286;7.518;2022-11-20T00:34:39;0.40;64.20
10057;DHT22;5068;51.286;7.518;2022-11-20T00:36:14;0.40;63.90
10057;DHT22;5068;51.286;7.518;2022-11-20T00:37:49;0.40;63.90
10057;DHT22;5068;51.286;7.518;2022-11-20T00:39:22;0.40;63.90
10057;DHT22;5068;51.286;7.518;2022-11-20T00:40:56;0.40;64.00
10057;DHT22;5068;51.286;7.518;2022-11-20T00:42:30;0.40;64.10
10057;DHT22;5068;51.286;7.518;2022-11-20T00:44:04;0.50;64.90
10057;DHT22;5068;51.286;7.518;2022-11-20T00:45:38;0.50;64.20
10057;DHT22;5068;51.286;7.518;2022-11-20T00:47:12;0.50;64.30
10057;DHT22;5068;51.286;7.518;2022-11-20T00:48:47;0.50;64.30
10057;DHT22;5068;51.286;7.518;2022-11-20T00:50:20;0.50;64.40
10057;DHT22;5068;51.286;7.518;2022-11-20T00:51:54;0.50;64.40
10057;DHT22;5068;51.286;7.518;2022-11-20T00:53:27;0.50;64.50
10057;DHT22;5068;51.286;7.518;2022-11-20T00:55:00;0.60;64.70
10057;DHT22;5068;51.286;7.518;2022-11-20T00:56:33;0.60;64.70
10057;DHT22;5068;51.286;7.518;2022-11-20T00:58:06;0.60;64.60
10057;DHT22;5068;51.286;7.518;2022-11-20T00:59:45;0.60;64.70
10057;DHT22;5068;51.286;7.518;2022-11-20T01:01:20;0.60;64.70
10057;DHT22;5068;51.286;7.518;2022-11-20T01:02:56;0.70;64.80
10057;DHT22;5068;51.286;7.518;2022-11-20T01:04:30;0.70;64.70
10057;DHT22;5068;51.286;7.518;2022-11-20T01:06:06;0.70;64.70
10057;DHT22;5068;51.286;7.518;2022-11-20T01:07:39;0.70;64.80
10057;DHT22;5068;51.286;7.518;2022-11-20T01:09:13;0.70;64.70
10057;DHT22;5068;51.286;7.518;2022-11-20T01:10:47;0.70;64.70
10057;DHT22;5068;51.286;7.518;2022-11-20T01:12:19;0.80;64.80
10057;DHT22;5068;51.286;7.518;2022-11-20T01:13:53;0.80;64.70
10057;DHT22;5068;51.286;7.518;2022-11-20T01:15:27;0.80;64.70
10057;DHT22;5068;51.286;7.518;2022-11-20T01:17:00;0.80;64.70
10057;DHT22;5068;51.286;7.518;2022-11-20T01:18:34;0.80;64.70
10057;DHT22;5068;51.286;7.518;2022-11-20T01:20:10;0.80;64.80
10057;DHT22;5068;51.286;7.518;2022-11-20T01:21:44;0.80;64.80
10057;DHT22;5068;51.286;7.518;2022-11-20T01:23:19;0.80;64.80
10057;DHT22;5068;51.286;7.518;2022-11-20T01:24:51;0.90;64.90
10057;DHT22;5068;51.286;7.518;2022-11-20T01:26:26;0.90;64.90
10057;DHT22;5068;51.286;7.518;2022-11-20T01:28:00;0.90;65.00
10057;DHT22;5068;51.286;7.518;2022-11-20T01:29:33;0.90;64.90
10057;DHT22;5068;51.286;7.518;2022-11-20T01:31:11;0.90;64.80
10057;DHT22;5068;51.286;7.518;2022-11-20T01:32:47;0.90;64.80
10057;DHT22;5068;51.286;7.518;2022-11-20T01:34:21;0.90;64.70
10057;DHT22;5068;51.286;7.518;2022-11-20T01:36:05;0.90;64.70
10057;DHT22;5068;51.286;7.518;2022-11-20T01:37:40;0.90;64.70
10057;DHT22;5068;51.286;7.518;2022-11-20T01:39:15;0.90;64.70
10057;DHT22;5068;51.286;7.518;2022-11-20T01:40:54;0.90;64.70
10057;DHT22;5068;51.286;7.518;2022-11-20T01:42:27;1.00;64.90
10057;DHT22;5068;51.286;7.518;2022-11-20T01:44:22;1.00;64.90
10057;DHT22;5068;51.286;7.518;2022-11-20T01:46:16;1.00;65.00
10057;DHT22;5068;51.286;7.518;2022-11-20T01:47:51;1.00;65.00
10057;DHT22;5068;51.286;7.518;2022-11-20T01:49:26;1.00;64.90
10057;DHT22;5068;51.286;7.518;2022-11-20T01:51:13;1.00;64.80
10057;DHT22;5068;51.286;7.518;2022-11-20T01:52:54;1.00;64.80
10057;DHT22;5068;51.286;7.518;2022-11-20T01:54:34;1.00;64.80
10057;DHT22;5068;51.286;7.518;2022-11-20T01:56:12;1.00;64.70
10057;DHT22;5068;51.286;7.518;2022-11-20T01:57:47;1.00;64.70
10057;DHT22;5068;51.286;7.518;2022-11-20T01:59:22;1.10;64.80
10057;DHT22;5068;51.286;7.518;2022-11-20T02:00:59;1.10;64.70
10057;DHT22;5068;51.286;7.518;2022-11-20T02:02:33;1.10;64.70
10057;DHT22;5068;51.286;7.518;2022-11-20T02:04:08;1.10;64.80
10057;DHT22;5068;51.286;7.518;2022-11-20T02:05:46;1.10;64.80
10057;DHT22;5068;51.286;7.518;2022-11-20T02:07:26;1.10;64.70
10057;DHT22;5068;51.286;7.518;2022-11-20T02:09:00;1.10;64.60
10057;DHT22;5068;51.286;7.518;2022-11-20T02:10:34;1.10;64.50
10057;DHT22;5068;51.286;7.518;2022-11-20T02:12:08;1.10;64.50
10057;DHT22;5068;51.286;7.518;2022-11-20T02:14:01;1.10;64.60
10057;DHT22;5068;51.286;7.518;2022-11-20T02:15:33;1.10;64.60
10057;DHT22;5068;51.286;7.518;2022-11-20T02:17:06;1.20;64.70
10057;DHT22;5068;51.286;7.518;2022-11-20T02:18:42;1.20;64.70
10057;DHT22;5068;51.286;7.518;2022-11-20T02:20:16;1.20;64.60
10057;DHT22;5068;51.286;7.518;2022-11-20T02:21:56;1.20;64.60
10057;DHT22;5068;51.286;7.518;2022-11-20T02:23:39;1.20;64.70
10057;DHT22;5068;51.286;7.518;2022-11-20T02:25:27;1.20;64.70
10057;DHT22;5068;51.286;7.518;2022-11-20T02:27:03;1.20;64.70
10057;DHT22;5068;51.286;7.518;2022-11-20T02:28:40;1.30;64.80
10057;DHT22;5068;51.286;7.518;2022-11-20T02:30:12;1.30;64.70
10057;DHT22;5068;51.286;7.518;2022-11-20T02:31:46;1.30;64.70
10057;DHT22;5068;51.286;7.518;2022-11-20T02:33:20;1.30;64.80
10057;DHT22;5068;51.286;7.518;2022-11-20T02:34:52;1.30;64.70
10057;DHT22;5068;51.286;7.518;2022-11-20T02:36:27;1.30;64.70
10057;DHT22;5068;51.286;7.518;2022-11-20T02:38:02;1.30;64.70
10057;DHT22;5068;51.286;7.518;2022-11-20T02:39:37;1.30;64.70
10057;DHT22;5068;51.286;7.518;2022-11-20T02:41:11;1.30;64.70
10057;DHT22;5068;51.286;7.518;2022-11-20T02:42:43;1.30;65.50
10057;DHT22;5068;51.286;7.518;2022-11-20T02:44:16;1.30;64.70
10057;DHT22;5068;51.286;7.518;2022-11-20T02:45:50;1.40;65.60
10057;DHT22;5068;51.286;7.518;2022-11-20T02:47:23;1.40;64.80
10057;DHT22;5068;51.286;7.518;2022-11-20T02:48:56;1.40;64.80
10057;DHT22;5068;51.286;7.518;2022-11-20T02:50:30;1.40;64.80
10057;DHT22;5068;51.286;7.518;2022-11-20T02:52:03;1.40;64.80
10057;DHT22;5068;51.286;7.518;2022-11-20T02:53:37;1.40;64.90
10057;DHT22;5068;51.286;7.518;2022-11-20T02:55:11;1.40;64.80
10057;DHT22;5068;51.286;7.518;2022-11-20T02:56:44;1.40;64.80
10057;DHT22;5068;51.286;7.518;2022-11-20T02:58:17;1.40;64.70
10057;DHT22;5068;51.286;7.518;2022-11-20T02:59:51;1.50;64.80
10057;DHT22;5068;51.286;7.518;2022-11-20T03:01:24;1.40;64.60
10057;DHT22;5068;51.286;7.518;2022-11-20T03:02:57;1.50;64.90
10057;DHT22;5068;51.286;7.518;2022-11-20T03:04:30;1.50;64.80
10057;DHT22;5068;51.286;7.518;2022-11-20T03:06:04;1.50;64.80
10057;DHT22;5068;51.286;7.518;2022-11-20T03:07:38;1.50;64.70
10057;DHT22;5068;51.286;7.518;2022-11-20T03:09:11;1.50;64.60
10057;DHT22;5068;51.286;7.518;2022-11-20T03:10:46;1.50;64.70
10057;DHT22;5068;51.286;7.518;2022-11-20T03:12:20;1.50;64.70
10057;DHT22;5068;51.286;7.518;2022-11-20T03:13:53;1.50;64.70
10057;DHT22;5068;51.286;7.518;2022-11-20T03:15:26;1.50;64.80
10057;DHT22;5068;51.286;7.518;2022-11-20T03:16:59;1.50;64.70
10057;DHT22;5068;51.286;7.518;2022-11-20T03:18:32;1.50;64.70
10057;DHT22;5068;51.286;7.518;2022-11-20T03:20:07;1.50;64.70
10057;DHT22;5068;51.286;7.518;2022-11-20T03:21:41;1.50;64.70
10057;DHT22;5068;51.286;7.518;2022-11-20T03:23:13;1.60;64.70
10057;DHT22;5068;51.286;7.518;2022-11-20T03:24:46;1.60;64.60
10057;DHT22;5068;51.286;7.518;2022-11-20T03:26:23;1.60;64.70
10057;DHT22;5068;51.286;7.518;2022-11-20T03:27:57;1.60;64.80
10057;DHT22;5068;51.286;7.518;2022-11-20T03:29:30;1.60;64.70
10057;DHT22;5068;51.286;7.518;2022-11-20T03:31:08;1.50;64.60
10057;DHT22;5068;51.286;7.518;2022-11-20T03:32:43;1.50;64.70
10057;DHT22;5068;51.286;7.518;2022-11-20T03:34:16;1.50;64.60
10057;DHT22;5068;51.286;7.518;2022-11-20T03:35:50;1.60;64.80
10057;DHT22;5068;51.286;7.518;2022-11-20T03:37:23;1.50;64.70
10057;DHT22;5068;51.286;7.518;2022-11-20T03:38:57;1.60;64.80
10057;DHT22;5068;51.286;7.518;2022-11-20T03:40:30;1.60;64.80
10057;DHT22;5068;51.286;7.518;2022-11-20T03:42:06;1.60;65.60
10057;DHT22;5068;51.286;7.518;2022-11-20T03:44:02;1.60;64.90
10057;DHT22;5068;51.286;7.518;2022-11-20T03:45:36;1.60;65.00
10057;DHT22;5068;51.286;7.518;2022-11-20T03:47:09;1.60;65.70
10057;DHT22;5068;51.286;7.518;2022-11-20T03:48:43;1.60;65.70
10057;DHT22;5068;51.286;7.518;2022-11-20T03:50:22;1.60;64.90
10057;DHT22;5068;51.286;7.518;2022-11-20T03:51:55;1.60;64.90
10057;DHT22;5068;51.286;7.518;2022-11-20T03:53:29;1.60;64.90
10057;DHT22;5068;51.286;7.518;2022-11-20T03:55:02;1.60;64.80
10057;DHT22;5068;51.286;7.518;2022-11-20T03:56:37;1.60;64.80
10057;DHT22;5068;51.286;7.518;2022-11-20T03:58:13;1.60;64.90
10057;DHT22;5068;51.286;7.518;2022-11-20T03:59:45;1.60;64.80
10057;DHT22;5068;51.286;7.518;2022-11-20T04:01:20;1.60;64.80
10057;DHT22;5068;51.286;7.518;2022-11-20T04:02:57;1.60;64.80
10057;DHT22;5068;51.286;7.518;2022-11-20T04:04:31;1.60;64.70
10057;DHT22;5068;51.286;7.518;2022-11-20T04:06:06;1.60;64.60
10057;DHT22;5068;51.286;7.518;2022-11-20T04:07:41;1.60;64.50
10057;DHT22;5068;51.286;7.518;2022-11-20T04:09:14;1.70;64.50
10057;DHT22;5068;51.286;7.518;2022-11-20T04:10:47;1.70;64.50
10057;DHT22;5068;51.286;7.518;2022-11-20T04:12:20;1.60;64.40
10057;DHT22;5068;51.286;7.518;2022-11-20T04:13:57;1.60;64.40
10057;DHT22;5068;51.286;7.518;2022-11-20T04:15:31;1.60;64.50
10057;DHT22;5068;51.286;7.518;2022-11-20T04:17:09;1.70;64.70
10057;DHT22;5068;51.286;7.518;2022-11-20T04:18:41;1.60;64.80
10057;DHT22;5068;51.286;7.518;2022-11-20T04:20:15;1.70;64.90
10057;DHT22;5068;51.286;7.518;2022-11-20T04:21:49;1.70;64.90
10057;DHT22;5068;51.286;7.518;2022-11-20T04:23:22;1.70;64.90
10057;DHT22;5068;51.286;7.518;2022-11-20T04:24:59;1.70;64.90
10057;DHT22;5068;51.286;7.518;2022-11-20T04:26:33;1.70;65.00
10057;DHT22;5068;51.286;7.518;2022-11-20T04:28:06;1.70;64.90
10057;DHT22;5068;51.286;7.518;2022-11-20T04:29:41;1.70;64.80
10057;DHT22;5068;51.286;7.518;2022-11-20T04:31:15;1.70;64.80
10057;DHT22;5068;51.286;7.518;2022-11-20T04:32:49;1.70;64.80
10057;DHT22;5068;51.286;7.518;2022-11-20T04:34:22;1.70;64.70
10057;DHT22;5068;51.286;7.518;2022-11-20T04:36:00;1.70;64.80
10057;DHT22;5068;51.286;7.518;2022-11-20T04:37:33;1.70;64.90
10057;DHT22;5068;51.286;7.518;2022-11-20T04:39:07;1.70;64.90
10057;DHT22;5068;51.286;7.518;2022-11-20T04:40:44;1.70;64.90
10057;DHT22;5068;51.286;7.518;2022-11-20T04:42:16;1.70;64.90
10057;DHT22;5068;51.286;7.518;2022-11-20T04:44:03;1.70;65.00
10057;DHT22;5068;51.286;7.518;2022-11-20T04:45:39;1.70;65.00
10057;DHT22;5068;51.286;7.518;2022-11-20T04:47:12;1.80;65.00
10057;DHT22;5068;51.286;7.518;2022-11-20T04:48:46;1.80;65.00
10057;DHT22;5068;51.286;7.518;2022-11-20T04:50:20;1.80;65.00
10057;DHT22;5068;51.286;7.518;2022-11-20T04:51:53;1.80;64.90
10057;DHT22;5068;51.286;7.518;2022-11-20T04:53:26;1.80;64.80
10057;DHT22;5068;51.286;7.518;2022-11-20T04:54:59;1.80;64.70
10057;DHT22;5068;51.286;7.518;2022-11-20T04:56:32;1.80;64.70
10057;DHT22;5068;51.286;7.518;2022-11-20T04:58:05;1.80;64.70
10057;DHT22;5068;51.286;7.518;2022-11-20T04:59:38;1.80;64.70
10057;DHT22;5068;51.286;7.518;2022-11-20T05:01:14;1.80;64.80
10057;DHT22;5068;51.286;7.518;2022-11-20T05:02:50;1.80;65.00
10057;DHT22;5068;51.286;7.518;2022-11-20T05:04:23;1.80;64.80
10057;DHT22;5068;51.286;7.518;2022-11-20T05:05:57;1.80;64.80
10057;DHT22;5068;51.286;7.518;2022-11-20T05:07:32;1.80;64.70
10057;DHT22;5068;51.286;7.518;2022-11-20T05:09:05;1.80;64.60
10057;DHT22;5068;51.286;7.518;2022-11-20T05:10:38;1.90;64.70
10057;DHT22;5068;51.286;7.518;2022-11-20T05:12:12;1.90;64.70
10057;DHT22;5068;51.286;7.518;2022-11-20T05:13:45;1.90;64.70
10057;DHT22;5068;51.286;7.518;2022-11-20T05:15:18;1.80;64.60
10057;DHT22;5068;51.286;7.518;2022-11-20T05:16:53;1.90;64.60
10057;DHT22;5068;51.286;7.518;2022-11-20T05:18:27;1.80;64.50
10057;DHT22;5068;51.286;7.518;2022-11-20T05:19:59;1.90;64.70
10057;DHT22;5068;51.286;7.518;2022-11-20T05:21:33;1.90;64.60
10057;DHT22;5068;51.286;7.518;2022-11-20T05:23:06;1.80;64.50
10057;DHT22;5068;51.286;7.518;2022-11-20T05:24:39;1.90;64.60
10057;DHT22;5068;51.286;7.518;2022-11-20T05:26:14;1.80;64.50
10057;DHT22;5068;51.286;7.518;2022-11-20T05:27:48;1.90;64.70
10057;DHT22;5068;51.286;7.518;2022-11-20T05:29:21;1.90;64.60
10057;DHT22;5068;51.286;7.518;2022-11-20T05:30:55;1.80;64.50
10057;DHT22;5068;51.286;7.518;2022-11-20T05:32:29;1.90;64.70
10057;DHT22;5068;51.286;7.518;2022-11-20T05:34:02;1.90;64.70
10057;DHT22;5068;51.286;7.518;2022-11-20T05:35:35;1.90;65.60
10057;DHT22;5068;51.286;7.518;2022-11-20T05:37:07;1.90;64.80
10057;DHT22;5068;51.286;7.518;2022-11-20T05:38:42;1.90;64.80
10057;DHT22;5068;51.286;7.518;2022-11-20T05:40:21;1.90;64.80
10057;DHT22;5068;51.286;7.518;2022-11-20T05:41:54;1.90;64.80
10057;DHT22;5068;51.286;7.518;2022-11-20T05:43:44;1.90;64.70
10057;DHT22;5068;51.286;7.518;2022-11-20T05:45:18;1.90;64.70
10057;DHT22;5068;51.286;7.518;2022-11-20T05:46:50;1.90;64.60
10057;DHT22;5068;51.286;7.518;2022-11-20T05:48:25;1.90;64.60
10057;DHT22;5068;51.286;7.518;2022-11-20T05:49:58;1.90;64.60
10057;DHT22;5068;51.286;7.518;2022-11-20T05:51:31;1.90;64.60
10057;DHT22;5068;51.286;7.518;2022-11-20T05:53:04;1.90;64.60
10057;DHT22;5068;51.286;7.518;2022-11-20T05:54:38;1.90;64.60
10057;DHT22;5068;51.286;7.518;2022-11-20T05:56:13;1.90;64.60
10057;DHT22;5068;51.286;7.518;2022-11-20T05:57:48;1.90;65.40
10057;DHT22;5068;51.286;7.518;2022-11-20T05:59:21;1.90;64.40
10057;DHT22;5068;51.286;7.518;2022-11-20T06:01:02;1.90;64.50
10057;DHT22;5068;51.286;7.518;2022-11-20T06:02:37;1.90;64.50
10057;DHT22;5068;51.286;7.518;2022-11-20T06:04:12;1.90;64.50
10057;DHT22;5068;51.286;7.518;2022-11-20T06:05:45;1.90;64.50
10057;DHT22;5068;51.286;7.518;2022-11-20T06:07:18;1.90;64.50
10057;DHT22;5068;51.286;7.518;2022-11-20T06:08:52;1.90;64.50
10057;DHT22;5068;51.286;7.518;2022-11-20T06:10:25;2.00;64.60
10057;DHT22;5068;51.286;7.518;2022-11-20T06:11:58;1.90;64.50
10057;DHT22;5068;51.286;7.518;2022-11-20T06:13:32;1.90;64.50
10057;DHT22;5068;51.286;7.518;2022-11-20T06:15:12;1.90;64.50
10057;DHT22;5068;51.286;7.518;2022-11-20T06:16:45;2.00;64.70
10057;DHT22;5068;51.286;7.518;2022-11-20T06:18:19;2.00;64.60
10057;DHT22;5068;51.286;7.518;2022-11-20T06:19:54;1.90;64.50
10057;DHT22;5068;51.286;7.518;2022-11-20T06:21:27;2.00;64.50
10057;DHT22;5068;51.286;7.518;2022-11-20T06:23:01;1.90;64.40
10057;DHT22;5068;51.286;7.518;2022-11-20T06:24:34;1.90;64.50
10057;DHT22;5068;51.286;7.518;2022-11-20T06:26:09;2.00;64.70
10057;DHT22;5068;51.286;7.518;2022-11-20T06:27:43;2.00;64.80
10057;DHT22;5068;51.286;7.518;2022-11-20T06:29:17;2.00;64.70
10057;DHT22;5068;51.286;7.518;2022-11-20T06:30:50;1.90;64.50
10057;DHT22;5068;51.286;7.518;2022-11-20T06:32:22;1.90;64.60
10057;DHT22;5068;51.286;7.518;2022-11-20T06:33:56;2.00;64.70
10057;DHT22;5068;51.286;7.518;2022-11-20T06:35:30;2.00;64.70
10057;DHT22;5068;51.286;7.518;2022-11-20T06:37:03;1.90;64.50
10057;DHT22;5068;51.286;7.518;2022-11-20T06:38:36;1.90;64.50
10057;DHT22;5068;51.286;7.518;2022-11-20T06:40:11;2.00;64.70
10057;DHT22;5068;51.286;7.518;2022-11-20T06:41:44;1.90;64.70
10057;DHT22;5068;51.286;7.518;2022-11-20T06:43:17;2.00;64.70
10057;DHT22;5068;51.286;7.518;2022-11-20T06:44:51;2.00;64.70
10057;DHT22;5068;51.286;7.518;2022-11-20T06:46:24;2.00;64.70
10057;DHT22;5068;51.286;7.518;2022-11-20T06:47:57;2.00;64.70
10057;DHT22;5068;51.286;7.518;2022-11-20T06:49:30;2.00;64.70
10057;DHT22;5068;51.286;7.518;2022-11-20T06:51:06;2.00;64.70
10057;DHT22;5068;51.286;7.518;2022-11-20T06:52:40;2.00;64.70
10057;DHT22;5068;51.286;7.518;2022-11-20T06:54:14;2.00;64.70
10057;DHT22;5068;51.286;7.518;2022-11-20T06:55:48;2.00;64.60
10057;DHT22;5068;51.286;7.518;2022-11-20T06:57:22;2.00;64.60
10057;DHT22;5068;51.286;7.518;2022-11-20T06:58:56;2.00;64.50
10057;DHT22;5068;51.286;7.518;2022-11-20T07:00:29;2.00;64.60
10057;DHT22;5068;51.286;7.518;2022-11-20T07:02:02;2.00;64.50
10057;DHT22;5068;51.286;7.518;2022-11-20T07:03:36;2.00;64.40
10057;DHT22;5068;51.286;7.518;2022-11-20T07:05:09;2.00;64.50
10057;DHT22;5068;51.286;7.518;2022-11-20T07:06:44;2.00;64.50
10057;DHT22;5068;51.286;7.518;2022-11-20T07:08:17;2.00;64.50
10057;DHT22;5068;51.286;7.518;2022-11-20T07:09:51;2.00;64.50
10057;DHT22;5068;51.286;7.518;2022-11-20T07:11:24;2.00;64.50
10057;DHT22;5068;51.286;7.518;2022-11-20T07:12:57;2.00;64.50
10057;DHT22;5068;51.286;7.518;2022-11-20T07:14:29;2.00;64.40
10057;DHT22;5068;51.286;7.518;2022-11-20T07:16:05;2.00;64.30
10057;DHT22;5068;51.286;7.518;2022-11-20T07:17:39;2.00;64.30
10057;DHT22;5068;51.286;7.518;2022-11-20T07:19:12;2.10;65.20
10057;DHT22;5068;51.286;7.518;2022-11-20T07:20:46;2.10;64.50
10057;DHT22;5068;51.286;7.518;2022-11-20T07:22:20;2.00;64.40
10057;DHT22;5068;51.286;7.518;2022-11-20T07:23:54;2.10;64.60
10057;DHT22;5068;51.286;7.518;2022-11-20T07:25:28;2.10;64.60
10057;DHT22;5068;51.286;7.518;2022-11-20T07:27:02;2.10;64.70
10057;DHT22;5068;51.286;7.518;2022-11-20T07:28:36;2.10;64.60
10057;DHT22;5068;51.286;7.518;2022-11-20T07:30:10;2.10;64.50
10057;DHT22;5068;51.286;7.518;2022-11-20T07:31:45;2.10;64.50
10057;DHT22;5068;51.286;7.518;2022-11-20T07:33:19;2.10;64.40
10057;DHT22;5068;51.286;7.518;2022-11-20T07:34:52;2.10;64.40
10057;DHT22;5068;51.286;7.518;2022-11-20T07:36:26;2.10;64.40
10057;DHT22;5068;51.286;7.518;2022-11-20T07:38:00;2.10;65.20
10057;DHT22;5068;51.286;7.518;2022-11-20T07:39:35;2.10;64.40
10057;DHT22;5068;51.286;7.518;2022-11-20T07:41:08;2.10;64.40
10057;DHT22;5068;51.286;7.518;2022-11-20T07:42:47;2.10;64.30
10057;DHT22;5068;51.286;7.518;2022-11-20T07:44:21;2.10;64.30
10057;DHT22;5068;51.286;7.518;2022-11-20T07:45:55;2.10;64.20
10057;DHT22;5068;51.286;7.518;2022-11-20T07:47:29;2.10;64.30
10057;DHT22;5068;51.286;7.518;2022-11-20T07:49:07;2.10;64.30
10057;DHT22;5068;51.286;7.518;2022-11-20T07:50:41;2.10;64.30
10057;DHT22;5068;51.286;7.518;2022-11-20T07:52:14;2.10;64.30
10057;DHT22;5068;51.286;7.518;2022-11-20T07:53:50;2.10;64.40
10057;DHT22;5068;51.286;7.518;2022-11-20T07:55:23;2.20;64.50
10057;DHT22;5068;51.286;7.518;2022-11-20T07:56:57;2.20;64.60
10057;DHT22;5068;51.286;7.518;2022-11-20T07:58:31;2.10;64.60
10057;DHT22;5068;51.286;7.518;2022-11-20T08:00:08;2.20;64.70
10057;DHT22;5068;51.286;7.518;2022-11-20T08:01:46;2.20;64.60
10057;DHT22;5068;51.286;7.518;2022-11-20T08:03:20;2.10;65.40
10057;DHT22;5068;51.286;7.518;2022-11-20T08:04:56;2.20;64.60
10057;DHT22;5068;51.286;7.518;2022-11-20T08:06:30;2.20;64.50
10057;DHT22;5068;51.286;7.518;2022-11-20T08:08:03;2.20;64.40
10057;DHT22;5068;51.286;7.518;2022-11-20T08:09:39;2.20;64.30
10057;DHT22;5068;51.286;7.518;2022-11-20T08:11:13;2.20;64.30
10057;DHT22;5068;51.286;7.518;2022-11-20T08:13:04;2.20;64.20
10057;DHT22;5068;51.286;7.518;2022-11-20T08:14:55;2.20;64.00
10057;DHT22;5068;51.286;7.518;2022-11-20T08:16:30;2.20;64.00
10057;DHT22;5068;51.286;7.518;2022-11-20T08:18:06;2.20;63.90
10057;DHT22;5068;51.286;7.518;2022-11-20T08:20:00;2.20;64.00
10057;DHT22;5068;51.286;7.518;2022-11-20T08:21:34;2.20;63.90
10057;DHT22;5068;51.286;7.518;2022-11-20T08:23:09;2.20;63.90
10057;DHT22;5068;51.286;7.518;2022-11-20T08:24:44;2.20;64.10
10057;DHT22;5068;51.286;7.518;2022-11-20T08:26:17;2.20;64.20
10057;DHT22;5068;51.286;7.518;2022-11-20T08:27:51;2.20;64.30
10057;DHT22;5068;51.286;7.518;2022-11-20T08:29:30;2.20;64.20
10057;DHT22;5068;51.286;7.518;2022-11-20T08:31:04;2.20;64.20
10057;DHT22;5068;51.286;7.518;2022-11-20T08:32:37;2.20;64.10
10057;DHT22;5068;51.286;7.518;2022-11-20T08:34:11;2.30;64.20
10057;DHT22;5068;51.286;7.518;2022-11-20T08:35:49;2.30;64.10
10057;DHT22;5068;51.286;7.518;2022-11-20T08:37:22;2.30;64.00
10057;DHT22;5068;51.286;7.518;2022-11-20T08:38:56;2.30;64.00
10057;DHT22;5068;51.286;7.518;2022-11-20T08:40:31;2.30;63.80
10057;DHT22;5068;51.286;7.518;2022-11-20T08:42:06;2.40;64.00
10057;DHT22;5068;51.286;7.518;2022-11-20T08:43:40;2.30;63.80
10057;DHT22;5068;51.286;7.518;2022-11-20T08:45:13;2.30;63.80
10057;DHT22;5068;51.286;7.518;2022-11-20T08:46:47;2.30;63.70
10057;DHT22;5068;51.286;7.518;2022-11-20T08:48:20;2.30;63.60
10057;DHT22;5068;51.286;7.518;2022-11-20T08:49:54;2.30;63.60
10057;DHT22;5068;51.286;7.518;2022-11-20T08:51:27;2.30;63.50
10057;DHT22;5068;51.286;7.518;2022-11-20T08:53:02;2.30;63.50
10057;DHT22;5068;51.286;7.518;2022-11-20T08:54:36;2.40;63.70
10057;DHT22;5068;51.286;7.518;2022-11-20T08:56:11;2.40;63.70
10057;DHT22;5068;51.286;7.518;2022-11-20T08:57:44;2.40;63.80
10057;DHT22;5068;51.286;7.518;2022-11-20T08:59:21;2.40;63.90
10057;DHT22;5068;51.286;7.518;2022-11-20T09:01:15;2.50;64.00
10057;DHT22;5068;51.286;7.518;2022-11-20T09:02:48;2.50;64.00
10057;DHT22;5068;51.286;7.518;2022-11-20T09:04:21;2.50;63.90
10057;DHT22;5068;51.286;7.518;2022-11-20T09:06:06;2.50;63.70
10057;DHT22;5068;51.286;7.518;2022-11-20T09:07:39;2.50;63.70
10057;DHT22;5068;51.286;7.518;2022-11-20T09:09:14;2.60;63.80
10057;DHT22;5068;51.286;7.518;2022-11-20T09:10:51;2.60;63.70
10057;DHT22;5068;51.286;7.518;2022-11-20T09:12:26;2.60;63.50
10057;DHT22;5068;51.286;7.518;2022-11-20T09:13:59;2.60;63.40
10057;DHT22;5068;51.286;7.518;2022-11-20T09:15:34;2.70;63.50
10057;DHT22;5068;51.286;7.518;2022-11-20T09:17:09;2.70;63.40
10057;DHT22;5068;51.286;7.518;2022-11-20T09:18:45;2.70;63.30
10057;DHT22;5068;51.286;7.518;2022-11-20T09:20:32;2.70;63.20
10057;DHT22;5068;51.286;7.518;2022-11-20T09:22:06;2.80;63.10
10057;DHT22;5068;51.286;7.518;2022-11-20T09:23:40;2.80;63.10
10057;DHT22;5068;51.286;7.518;2022-11-20T09:25:13;2.80;63.00
10057;DHT22;5068;51.286;7.518;2022-11-20T09:26:47;2.80;63.00
10057;DHT22;5068;51.286;7.518;2022-11-20T09:28:22;2.80;63.00
10057;DHT22;5068;51.286;7.518;2022-11-20T09:29:55;2.90;63.10
10057;DHT22;5068;51.286;7.518;2022-11-20T09:31:29;2.90;63.00
10057;DHT22;5068;51.286;7.518;2022-11-20T09:33:04;3.00;62.90
10057;DHT22;5068;51.286;7.518;2022-11-20T09:34:38;3.00;62.80
10057;DHT22;5068;51.286;7.518;2022-11-20T09:36:11;3.00;62.40
10057;DHT22;5068;51.286;7.518;2022-11-20T09:37:45;3.00;62.40
10057;DHT22;5068;51.286;7.518;2022-11-20T09:39:18;3.00;62.50
10057;DHT22;5068;51.286;7.518;2022-11-20T09:40:57;3.10;62.70
10057;DHT22;5068;51.286;7.518;2022-11-20T09:42:37;3.10;62.60
10057;DHT22;5068;51.286;7.518;2022-11-20T09:44:28;3.10;62.50
10057;DHT22;5068;51.286;7.518;2022-11-20T09:46:17;3.10;62.40
10057;DHT22;5068;51.286;7.518;2022-11-20T09:48:05;3.10;62.30
10057;DHT22;5068;51.286;7.518;2022-11-20T09:49:59;3.10;62.30
10057;DHT22;5068;51.286;7.518;2022-11-20T09:51:49;3.10;62.30
10057;DHT22;5068;51.286;7.518;2022-11-20T09:53:37;3.10;62.20
10057;DHT22;5068;51.286;7.518;2022-11-20T09:55:19;3.10;62.10
10057;DHT22;5068;51.286;7.518;2022-11-20T09:56:56;3.10;62.00
10057;DHT22;5068;51.286;7.518;2022-11-20T09:58:38;3.10;61.90
10057;DHT22;5068;51.286;7.518;2022-11-20T10:00:16;3.10;61.70
10057;DHT22;5068;51.286;7.518;2022-11-20T10:01:54;3.10;61.60
10057;DHT22;5068;51.286;7.518;2022-11-20T10:03:37;3.10;61.50
10057;DHT22;5068;51.286;7.518;2022-11-20T10:05:18;3.10;61.20
10057;DHT22;5068;51.286;7.518;2022-11-20T10:07:08;3.10;61.10
10057;DHT22;5068;51.286;7.518;2022-11-20T10:09:16;3.10;61.00
10057;DHT22;5068;51.286;7.518;2022-11-20T10:11:01;3.10;60.90
10057;DHT22;5068;51.286;7.518;2022-11-20T10:12:51;3.10;60.80
10057;DHT22;5068;51.286;7.518;2022-11-20T10:14:45;3.10;60.70
10057;DHT22;5068;51.286;7.518;2022-11-20T10:16:37;3.10;60.70
10057;DHT22;5068;51.286;7.518;2022-11-20T10:18:30;3.10;60.50
10057;DHT22;5068;51.286;7.518;2022-11-20T10:20:17;3.20;60.40
10057;DHT22;5068;51.286;7.518;2022-11-20T10:22:03;3.20;60.20
10057;DHT22;5068;51.286;7.518;2022-11-20T10:24:03;3.20;60.20